sensor_id;sensor_type;location;lat;lon;timestamp;P1;durP1;ratioP1;P2;durP2;ratioP2
26536;SDS011;14204;51.262;5.488;2022-08-01T00:01:52;11.93;;;10.55;;
26536;SDS011;14204;51.262;5.488;2022-08-01T00:04:18;10.98;;;9.85;;
26536;SDS011;14204;51.262;5.488;2022-08-01T00:06:43;12.38;;;10.90;;
26536;SDS011;14204;51.262;5.488;2022-08-01T00:09:09;12.73;;;10.52;;
26536;SDS011;14204;51.262;5.488;2022-08-01T00:11:35;12.68;;;10.85;;
26536;SDS011;14204;51.262;5.488;2022-08-01T00:14:01;11.20;;;10.10;;
26536;SDS011;14204;51.262;5.488;2022-08-01T00:16:26;10.55;;;9.27;;
26536;SDS011;14204;51.262;5.488;2022-08-01T00:18:52;11.63;;;10.35;;
26536;SDS011;14204;51.262;5.488;2022-08-01T00:21:18;11.63;;;10.35;;
26536;SDS011;14204;51.262;5.488;2022-08-01T00:23:44;11.88;;;9.30;;
26536;SDS011;14204;51.262;5.488;2022-08-01T00:26:11;12.05;;;10.70;;
26536;SDS011;14204;51.262;5.488;2022-08-01T00:28:37;9.93;;;8.85;;
26536;SDS011;14204;51.262;5.488;2022-08-01T00:31:03;9.73;;;8.20;;
26536;SDS011;14204;51.262;5.488;2022-08-01T00:33:29;9.93;;;8.32;;
26536;SDS011;14204;51.262;5.488;2022-08-01T00:35:54;11.32;;;8.63;;
26536;SDS011;14204;51.262;5.488;2022-08-01T00:38:20;10.35;;;8.35;;
26536;SDS011;14204;51.262;5.488;2022-08-01T00:40:46;8.15;;;6.53;;
26536;SDS011;14204;51.262;5.488;2022-08-01T00:43:12;10.55;;;7.53;;
26536;SDS011;14204;51.262;5.488;2022-08-01T00:45:38;8.40;;;6.53;;
26536;SDS011;14204;51.262;5.488;2022-08-01T00:48:04;12.13;;;6.95;;
26536;SDS011;14204;51.262;5.488;2022-08-01T00:50:30;7.90;;;6.80;;
26536;SDS011;14204;51.262;5.488;2022-08-01T00:52:56;10.43;;;6.43;;
26536;SDS011;14204;51.262;5.488;2022-08-01T00:55:23;8.57;;;6.45;;
26536;SDS011;14204;51.262;5.488;2022-08-01T00:57:49;7.80;;;7.00;;
26536;SDS011;14204;51.262;5.488;2022-08-01T01:00:15;8.60;;;6.88;;
26536;SDS011;14204;51.262;5.488;2022-08-01T01:02:41;7.13;;;6.43;;
26536;SDS011;14204;51.262;5.488;2022-08-01T01:05:08;10.15;;;6.80;;
26536;SDS011;14204;51.262;5.488;2022-08-01T01:07:37;6.85;;;6.15;;
26536;SDS011;14204;51.262;5.488;2022-08-01T01:16:00;11.00;;;6.75;;
26536;SDS011;14204;51.262;5.488;2022-08-01T01:18:34;8.88;;;6.78;;
26536;SDS011;14204;51.262;5.488;2022-08-01T01:24:38;9.73;;;7.35;;
26536;SDS011;14204;51.262;5.488;2022-08-01T01:27:21;7.72;;;6.85;;
26536;SDS011;14204;51.262;5.488;2022-08-01T01:29:50;10.65;;;8.30;;
26536;SDS011;14204;51.262;5.488;2022-08-01T01:34:48;11.82;;;8.20;;
26536;SDS011;14204;51.262;5.488;2022-08-01T01:37:18;10.68;;;8.10;;
26536;SDS011;14204;51.262;5.488;2022-08-01T01:39:48;11.67;;;8.13;;
26536;SDS011;14204;51.262;5.488;2022-08-01T01:42:18;11.35;;;8.25;;
26536;SDS011;14204;51.262;5.488;2022-08-01T01:44:45;11.68;;;9.40;;
26536;SDS011;14204;51.262;5.488;2022-08-01T01:47:13;11.75;;;8.98;;
26536;SDS011;14204;51.262;5.488;2022-08-01T01:49:39;13.02;;;9.63;;
26536;SDS011;14204;51.262;5.488;2022-08-01T01:52:08;13.50;;;9.02;;
26536;SDS011;14204;51.262;5.488;2022-08-01T01:54:37;14.95;;;10.23;;
26536;SDS011;14204;51.262;5.488;2022-08-01T01:57:07;14.93;;;9.30;;
26536;SDS011;14204;51.262;5.488;2022-08-01T01:59:34;15.40;;;9.75;;
26536;SDS011;14204;51.262;5.488;2022-08-01T02:02:03;19.38;;;10.80;;
26536;SDS011;14204;51.262;5.488;2022-08-01T02:04:30;15.05;;;10.60;;
26536;SDS011;14204;51.262;5.488;2022-08-01T02:07:00;14.00;;;9.07;;
26536;SDS011;14204;51.262;5.488;2022-08-01T02:09:27;15.98;;;10.85;;
26536;SDS011;14204;51.262;5.488;2022-08-01T02:11:54;17.02;;;11.40;;
26536;SDS011;14204;51.262;5.488;2022-08-01T02:14:22;19.02;;;11.63;;
26536;SDS011;14204;51.262;5.488;2022-08-01T02:16:49;16.65;;;12.02;;
26536;SDS011;14204;51.262;5.488;2022-08-01T02:19:18;17.65;;;13.57;;
26536;SDS011;14204;51.262;5.488;2022-08-01T02:21:52;22.00;;;15.13;;
26536;SDS011;14204;51.262;5.488;2022-08-01T02:24:38;22.05;;;15.15;;
26536;SDS011;14204;51.262;5.488;2022-08-01T02:27:28;25.45;;;16.40;;
26536;SDS011;14204;51.262;5.488;2022-08-01T02:30:04;19.45;;;16.48;;
26536;SDS011;14204;51.262;5.488;2022-08-01T02:35:13;20.55;;;14.88;;
26536;SDS011;14204;51.262;5.488;2022-08-01T02:37:43;20.00;;;16.17;;
26536;SDS011;14204;51.262;5.488;2022-08-01T02:40:11;23.98;;;17.58;;
26536;SDS011;14204;51.262;5.488;2022-08-01T02:42:38;21.35;;;16.02;;
26536;SDS011;14204;51.262;5.488;2022-08-01T02:45:08;23.70;;;17.98;;
26536;SDS011;14204;51.262;5.488;2022-08-01T02:47:36;23.50;;;17.60;;
26536;SDS011;14204;51.262;5.488;2022-08-01T02:50:03;28.13;;;17.85;;
26536;SDS011;14204;51.262;5.488;2022-08-01T02:52:30;21.85;;;16.48;;
26536;SDS011;14204;51.262;5.488;2022-08-01T02:54:57;26.10;;;17.50;;
26536;SDS011;14204;51.262;5.488;2022-08-01T02:57:24;26.38;;;17.35;;
26536;SDS011;14204;51.262;5.488;2022-08-01T02:59:52;24.35;;;18.20;;
26536;SDS011;14204;51.262;5.488;2022-08-01T03:02:20;26.73;;;18.02;;
26536;SDS011;14204;51.262;5.488;2022-08-01T03:04:48;22.42;;;17.63;;
26536;SDS011;14204;51.262;5.488;2022-08-01T03:07:16;26.33;;;19.40;;
26536;SDS011;14204;51.262;5.488;2022-08-01T03:09:45;24.35;;;18.65;;
26536;SDS011;14204;51.262;5.488;2022-08-01T03:12:17;28.13;;;20.25;;
26536;SDS011;14204;51.262;5.488;2022-08-01T03:14:44;26.08;;;19.02;;
26536;SDS011;14204;51.262;5.488;2022-08-01T03:17:13;28.55;;;18.88;;
26536;SDS011;14204;51.262;5.488;2022-08-01T03:19:41;29.42;;;19.92;;
26536;SDS011;14204;51.262;5.488;2022-08-01T03:22:11;30.88;;;21.02;;
26536;SDS011;14204;51.262;5.488;2022-08-01T03:24:39;29.73;;;20.52;;
26536;SDS011;14204;51.262;5.488;2022-08-01T03:27:07;29.60;;;20.13;;
26536;SDS011;14204;51.262;5.488;2022-08-01T03:29:34;26.88;;;19.02;;
26536;SDS011;14204;51.262;5.488;2022-08-01T03:32:01;30.58;;;21.05;;
26536;SDS011;14204;51.262;5.488;2022-08-01T03:34:28;33.15;;;21.80;;
26536;SDS011;14204;51.262;5.488;2022-08-01T03:39:47;29.27;;;21.80;;
26536;SDS011;14204;51.262;5.488;2022-08-01T03:42:16;31.63;;;21.88;;
26536;SDS011;14204;51.262;5.488;2022-08-01T03:45:05;30.52;;;22.48;;
26536;SDS011;14204;51.262;5.488;2022-08-01T03:47:34;32.33;;;20.92;;
26536;SDS011;14204;51.262;5.488;2022-08-01T03:50:02;39.25;;;22.42;;
26536;SDS011;14204;51.262;5.488;2022-08-01T03:52:29;31.92;;;21.17;;
26536;SDS011;14204;51.262;5.488;2022-08-01T03:54:58;30.08;;;21.90;;
26536;SDS011;14204;51.262;5.488;2022-08-01T03:57:28;31.33;;;22.67;;
26536;SDS011;14204;51.262;5.488;2022-08-01T03:59:55;32.47;;;22.10;;
26536;SDS011;14204;51.262;5.488;2022-08-01T04:02:22;33.38;;;22.52;;
26536;SDS011;14204;51.262;5.488;2022-08-01T04:04:48;30.98;;;22.48;;
26536;SDS011;14204;51.262;5.488;2022-08-01T04:07:21;29.15;;;21.85;;
26536;SDS011;14204;51.262;5.488;2022-08-01T04:09:54;39.13;;;22.90;;
26536;SDS011;14204;51.262;5.488;2022-08-01T04:12:20;31.85;;;22.30;;
26536;SDS011;14204;51.262;5.488;2022-08-01T04:14:47;39.55;;;23.02;;
26536;SDS011;14204;51.262;5.488;2022-08-01T04:17:13;31.92;;;21.63;;
26536;SDS011;14204;51.262;5.488;2022-08-01T04:19:40;31.80;;;24.17;;
26536;SDS011;14204;51.262;5.488;2022-08-01T04:22:07;33.15;;;22.02;;
26536;SDS011;14204;51.262;5.488;2022-08-01T04:24:35;33.03;;;23.25;;
26536;SDS011;14204;51.262;5.488;2022-08-01T04:27:01;32.33;;;22.15;;
26536;SDS011;14204;51.262;5.488;2022-08-01T04:29:30;36.67;;;24.05;;
26536;SDS011;14204;51.262;5.488;2022-08-01T04:31:59;35.63;;;24.00;;
26536;SDS011;14204;51.262;5.488;2022-08-01T04:34:28;37.20;;;22.52;;
26536;SDS011;14204;51.262;5.488;2022-08-01T04:36:55;41.30;;;24.77;;
26536;SDS011;14204;51.262;5.488;2022-08-01T04:39:26;38.78;;;24.23;;
26536;SDS011;14204;51.262;5.488;2022-08-01T04:41:57;33.92;;;23.90;;
26536;SDS011;14204;51.262;5.488;2022-08-01T04:44:25;33.63;;;23.98;;
26536;SDS011;14204;51.262;5.488;2022-08-01T04:46:52;40.25;;;23.63;;
26536;SDS011;14204;51.262;5.488;2022-08-01T04:49:19;32.53;;;23.17;;
26536;SDS011;14204;51.262;5.488;2022-08-01T04:51:53;37.75;;;23.98;;
26536;SDS011;14204;51.262;5.488;2022-08-01T04:54:26;37.08;;;23.95;;
26536;SDS011;14204;51.262;5.488;2022-08-01T04:56:53;35.75;;;23.85;;
26536;SDS011;14204;51.262;5.488;2022-08-01T04:59:23;40.63;;;26.33;;
26536;SDS011;14204;51.262;5.488;2022-08-01T05:02:05;40.50;;;25.27;;
26536;SDS011;14204;51.262;5.488;2022-08-01T05:04:32;37.83;;;25.50;;
26536;SDS011;14204;51.262;5.488;2022-08-01T05:06:58;38.15;;;25.40;;
26536;SDS011;14204;51.262;5.488;2022-08-01T05:09:25;39.45;;;24.48;;
26536;SDS011;14204;51.262;5.488;2022-08-01T05:11:51;38.88;;;24.75;;
26536;SDS011;14204;51.262;5.488;2022-08-01T05:14:16;38.40;;;23.77;;
26536;SDS011;14204;51.262;5.488;2022-08-01T05:16:42;38.67;;;23.85;;
26536;SDS011;14204;51.262;5.488;2022-08-01T05:19:09;39.30;;;23.98;;
26536;SDS011;14204;51.262;5.488;2022-08-01T05:21:35;38.28;;;24.73;;
26536;SDS011;14204;51.262;5.488;2022-08-01T05:24:00;35.45;;;24.95;;
26536;SDS011;14204;51.262;5.488;2022-08-01T05:26:27;34.25;;;22.77;;
26536;SDS011;14204;51.262;5.488;2022-08-01T05:28:53;37.55;;;24.02;;
26536;SDS011;14204;51.262;5.488;2022-08-01T05:31:18;34.25;;;24.45;;
26536;SDS011;14204;51.262;5.488;2022-08-01T05:33:44;33.22;;;24.52;;
26536;SDS011;14204;51.262;5.488;2022-08-01T05:36:09;32.58;;;22.98;;
26536;SDS011;14204;51.262;5.488;2022-08-01T05:38:35;34.80;;;23.85;;
26536;SDS011;14204;51.262;5.488;2022-08-01T05:41:01;34.28;;;22.90;;
26536;SDS011;14204;51.262;5.488;2022-08-01T05:43:26;30.35;;;22.83;;
26536;SDS011;14204;51.262;5.488;2022-08-01T05:45:52;29.40;;;20.98;;
26536;SDS011;14204;51.262;5.488;2022-08-01T05:48:18;30.65;;;21.55;;
26536;SDS011;14204;51.262;5.488;2022-08-01T05:50:43;33.83;;;20.33;;
26536;SDS011;14204;51.262;5.488;2022-08-01T05:53:09;27.55;;;19.45;;
26536;SDS011;14204;51.262;5.488;2022-08-01T05:55:35;28.35;;;20.60;;
26536;SDS011;14204;51.262;5.488;2022-08-01T05:58:01;28.52;;;19.55;;
26536;SDS011;14204;51.262;5.488;2022-08-01T06:00:27;30.70;;;20.30;;
26536;SDS011;14204;51.262;5.488;2022-08-01T06:02:53;28.73;;;19.88;;
26536;SDS011;14204;51.262;5.488;2022-08-01T06:05:18;28.20;;;20.33;;
26536;SDS011;14204;51.262;5.488;2022-08-01T06:07:44;26.83;;;19.55;;
26536;SDS011;14204;51.262;5.488;2022-08-01T06:10:10;30.73;;;22.33;;
26536;SDS011;14204;51.262;5.488;2022-08-01T06:12:36;32.17;;;20.63;;
26536;SDS011;14204;51.262;5.488;2022-08-01T06:15:03;30.15;;;20.00;;
26536;SDS011;14204;51.262;5.488;2022-08-01T06:17:29;26.65;;;17.55;;
26536;SDS011;14204;51.262;5.488;2022-08-01T06:19:55;29.10;;;19.98;;
26536;SDS011;14204;51.262;5.488;2022-08-01T06:22:21;27.05;;;20.35;;
26536;SDS011;14204;51.262;5.488;2022-08-01T06:24:46;28.15;;;20.02;;
26536;SDS011;14204;51.262;5.488;2022-08-01T06:27:12;26.05;;;18.80;;
26536;SDS011;14204;51.262;5.488;2022-08-01T06:29:38;30.38;;;22.70;;
26536;SDS011;14204;51.262;5.488;2022-08-01T06:32:03;28.48;;;21.90;;
26536;SDS011;14204;51.262;5.488;2022-08-01T06:34:29;31.45;;;22.75;;
26536;SDS011;14204;51.262;5.488;2022-08-01T06:36:55;28.33;;;21.30;;
26536;SDS011;14204;51.262;5.488;2022-08-01T06:39:20;29.75;;;21.40;;
26536;SDS011;14204;51.262;5.488;2022-08-01T06:41:46;27.15;;;21.45;;
26536;SDS011;14204;51.262;5.488;2022-08-01T06:44:12;25.50;;;19.60;;
26536;SDS011;14204;51.262;5.488;2022-08-01T06:46:38;27.85;;;21.55;;
26536;SDS011;14204;51.262;5.488;2022-08-01T06:49:04;28.20;;;22.95;;
26536;SDS011;14204;51.262;5.488;2022-08-01T06:51:30;25.67;;;21.08;;
26536;SDS011;14204;51.262;5.488;2022-08-01T06:53:55;25.30;;;20.23;;
26536;SDS011;14204;51.262;5.488;2022-08-01T06:56:21;26.40;;;20.05;;
26536;SDS011;14204;51.262;5.488;2022-08-01T06:58:47;30.60;;;22.95;;
26536;SDS011;14204;51.262;5.488;2022-08-01T07:01:13;27.48;;;20.63;;
26536;SDS011;14204;51.262;5.488;2022-08-01T07:03:39;26.33;;;21.02;;
26536;SDS011;14204;51.262;5.488;2022-08-01T07:06:05;28.30;;;20.80;;
26536;SDS011;14204;51.262;5.488;2022-08-01T07:08:31;26.75;;;20.65;;
26536;SDS011;14204;51.262;5.488;2022-08-01T07:10:56;27.50;;;19.48;;
26536;SDS011;14204;51.262;5.488;2022-08-01T07:13:25;25.25;;;19.10;;
26536;SDS011;14204;51.262;5.488;2022-08-01T07:15:51;23.33;;;19.40;;
26536;SDS011;14204;51.262;5.488;2022-08-01T07:18:18;24.15;;;19.38;;
26536;SDS011;14204;51.262;5.488;2022-08-01T07:20:43;23.48;;;19.27;;
26536;SDS011;14204;51.262;5.488;2022-08-01T07:23:11;26.45;;;20.52;;
26536;SDS011;14204;51.262;5.488;2022-08-01T07:25:37;26.48;;;20.52;;
26536;SDS011;14204;51.262;5.488;2022-08-01T07:28:03;19.50;;;17.48;;
26536;SDS011;14204;51.262;5.488;2022-08-01T07:30:29;19.52;;;17.42;;
26536;SDS011;14204;51.262;5.488;2022-08-01T07:32:55;22.00;;;17.77;;
26536;SDS011;14204;51.262;5.488;2022-08-01T07:35:21;19.35;;;16.70;;
26536;SDS011;14204;51.262;5.488;2022-08-01T07:37:47;22.08;;;16.73;;
26536;SDS011;14204;51.262;5.488;2022-08-01T07:40:13;20.73;;;16.15;;
26536;SDS011;14204;51.262;5.488;2022-08-01T07:42:39;16.02;;;13.60;;
26536;SDS011;14204;51.262;5.488;2022-08-01T07:45:08;15.52;;;13.07;;
26536;SDS011;14204;51.262;5.488;2022-08-01T07:47:35;14.75;;;13.15;;
26536;SDS011;14204;51.262;5.488;2022-08-01T07:50:01;16.95;;;14.43;;
26536;SDS011;14204;51.262;5.488;2022-08-01T07:52:29;21.60;;;11.20;;
26536;SDS011;14204;51.262;5.488;2022-08-01T07:54:56;12.57;;;10.30;;
26536;SDS011;14204;51.262;5.488;2022-08-01T07:57:23;11.88;;;10.60;;
26536;SDS011;14204;51.262;5.488;2022-08-01T07:59:53;10.30;;;9.13;;
26536;SDS011;14204;51.262;5.488;2022-08-01T08:02:19;11.80;;;10.02;;
26536;SDS011;14204;51.262;5.488;2022-08-01T08:04:45;12.13;;;9.82;;
26536;SDS011;14204;51.262;5.488;2022-08-01T08:07:11;9.40;;;8.20;;
26536;SDS011;14204;51.262;5.488;2022-08-01T08:09:36;10.52;;;9.00;;
26536;SDS011;14204;51.262;5.488;2022-08-01T08:12:02;9.60;;;8.60;;
26536;SDS011;14204;51.262;5.488;2022-08-01T08:14:28;12.38;;;9.85;;
26536;SDS011;14204;51.262;5.488;2022-08-01T08:16:54;10.82;;;9.68;;
26536;SDS011;14204;51.262;5.488;2022-08-01T08:19:19;9.45;;;8.38;;
26536;SDS011;14204;51.262;5.488;2022-08-01T08:21:45;9.35;;;8.38;;
26536;SDS011;14204;51.262;5.488;2022-08-01T08:24:11;9.63;;;6.85;;
26536;SDS011;14204;51.262;5.488;2022-08-01T08:26:46;9.38;;;8.05;;
26536;SDS011;14204;51.262;5.488;2022-08-01T08:29:13;8.68;;;7.78;;
26536;SDS011;14204;51.262;5.488;2022-08-01T08:31:38;11.05;;;9.95;;
26536;SDS011;14204;51.262;5.488;2022-08-01T08:34:04;10.82;;;9.68;;
26536;SDS011;14204;51.262;5.488;2022-08-01T08:36:30;13.65;;;10.68;;
26536;SDS011;14204;51.262;5.488;2022-08-01T08:38:56;11.77;;;10.65;;
26536;SDS011;14204;51.262;5.488;2022-08-01T08:41:22;11.68;;;10.55;;
26536;SDS011;14204;51.262;5.488;2022-08-01T08:43:48;10.02;;;9.00;;
26536;SDS011;14204;51.262;5.488;2022-08-01T08:46:14;10.05;;;9.15;;
26536;SDS011;14204;51.262;5.488;2022-08-01T08:48:41;9.35;;;8.45;;
26536;SDS011;14204;51.262;5.488;2022-08-01T08:51:07;9.50;;;8.40;;
26536;SDS011;14204;51.262;5.488;2022-08-01T08:53:36;8.30;;;7.50;;
26536;SDS011;14204;51.262;5.488;2022-08-01T08:56:04;7.90;;;7.00;;
26536;SDS011;14204;51.262;5.488;2022-08-01T08:58:33;6.45;;;5.90;;
26536;SDS011;14204;51.262;5.488;2022-08-01T09:01:04;7.40;;;6.75;;
26536;SDS011;14204;51.262;5.488;2022-08-01T09:03:32;8.48;;;7.78;;
26536;SDS011;14204;51.262;5.488;2022-08-01T09:05:58;8.27;;;7.25;;
26536;SDS011;14204;51.262;5.488;2022-08-01T09:08:23;5.97;;;5.47;;
26536;SDS011;14204;51.262;5.488;2022-08-01T09:10:49;6.15;;;5.65;;
26536;SDS011;14204;51.262;5.488;2022-08-01T09:13:15;4.93;;;4.53;;
26536;SDS011;14204;51.262;5.488;2022-08-01T09:15:50;7.00;;;6.40;;
26536;SDS011;14204;51.262;5.488;2022-08-01T09:21:11;6.22;;;5.75;;
26536;SDS011;14204;51.262;5.488;2022-08-01T09:23:40;7.07;;;6.38;;
26536;SDS011;14204;51.262;5.488;2022-08-01T09:26:09;6.18;;;5.72;;
26536;SDS011;14204;51.262;5.488;2022-08-01T09:28:36;5.88;;;5.28;;
26536;SDS011;14204;51.262;5.488;2022-08-01T09:31:14;6.35;;;5.75;;
26536;SDS011;14204;51.262;5.488;2022-08-01T09:33:57;5.53;;;5.13;;
26536;SDS011;14204;51.262;5.488;2022-08-01T09:36:42;6.07;;;5.68;;
26536;SDS011;14204;51.262;5.488;2022-08-01T09:39:13;6.80;;;6.30;;
26536;SDS011;14204;51.262;5.488;2022-08-01T09:41:40;7.03;;;6.43;;
26536;SDS011;14204;51.262;5.488;2022-08-01T09:44:06;7.05;;;6.45;;
26536;SDS011;14204;51.262;5.488;2022-08-01T09:46:32;5.82;;;5.32;;
26536;SDS011;14204;51.262;5.488;2022-08-01T09:49:05;6.07;;;5.68;;
26536;SDS011;14204;51.262;5.488;2022-08-01T09:51:32;5.93;;;5.63;;
26536;SDS011;14204;51.262;5.488;2022-08-01T09:54:04;8.40;;;7.90;;
26536;SDS011;14204;51.262;5.488;2022-08-01T09:56:37;6.72;;;6.22;;
26536;SDS011;14204;51.262;5.488;2022-08-01T09:59:05;6.70;;;5.70;;
26536;SDS011;14204;51.262;5.488;2022-08-01T10:01:42;6.45;;;5.97;;
26536;SDS011;14204;51.262;5.488;2022-08-01T10:04:28;6.78;;;6.35;;
26536;SDS011;14204;51.262;5.488;2022-08-01T10:06:57;6.80;;;6.38;;
26536;SDS011;14204;51.262;5.488;2022-08-01T10:09:31;5.72;;;5.30;;
26536;SDS011;14204;51.262;5.488;2022-08-01T10:12:02;5.07;;;4.78;;
26536;SDS011;14204;51.262;5.488;2022-08-01T10:14:29;5.70;;;5.30;;
26536;SDS011;14204;51.262;5.488;2022-08-01T10:16:56;5.88;;;5.38;;
26536;SDS011;14204;51.262;5.488;2022-08-01T10:19:24;5.10;;;4.80;;
26536;SDS011;14204;51.262;5.488;2022-08-01T10:21:52;3.25;;;3.05;;
26536;SDS011;14204;51.262;5.488;2022-08-01T10:24:21;3.25;;;3.05;;
26536;SDS011;14204;51.262;5.488;2022-08-01T10:26:48;2.60;;;2.50;;
26536;SDS011;14204;51.262;5.488;2022-08-01T10:29:17;2.53;;;2.33;;
26536;SDS011;14204;51.262;5.488;2022-08-01T10:31:45;2.60;;;2.40;;
26536;SDS011;14204;51.262;5.488;2022-08-01T10:34:12;2.38;;;2.20;;
26536;SDS011;14204;51.262;5.488;2022-08-01T10:36:46;2.00;;;1.90;;
26536;SDS011;14204;51.262;5.488;2022-08-01T10:39:12;2.22;;;2.03;;
26536;SDS011;14204;51.262;5.488;2022-08-01T10:41:39;1.75;;;1.50;;
26536;SDS011;14204;51.262;5.488;2022-08-01T10:44:08;1.55;;;1.45;;
26536;SDS011;14204;51.262;5.488;2022-08-01T10:46:37;1.92;;;1.55;;
26536;SDS011;14204;51.262;5.488;2022-08-01T10:49:07;1.00;;;1.00;;
26536;SDS011;14204;51.262;5.488;2022-08-01T10:51:37;0.90;;;0.90;;
26536;SDS011;14204;51.262;5.488;2022-08-01T10:54:07;1.15;;;1.15;;
26536;SDS011;14204;51.262;5.488;2022-08-01T10:56:47;1.15;;;1.08;;
26536;SDS011;14204;51.262;5.488;2022-08-01T10:59:15;1.30;;;1.20;;
26536;SDS011;14204;51.262;5.488;2022-08-01T11:04:28;0.88;;;0.88;;
26536;SDS011;14204;51.262;5.488;2022-08-01T11:07:16;1.15;;;1.05;;
26536;SDS011;14204;51.262;5.488;2022-08-01T11:09:46;1.23;;;1.13;;
26536;SDS011;14204;51.262;5.488;2022-08-01T11:12:15;1.73;;;1.58;;
26536;SDS011;14204;51.262;5.488;2022-08-01T11:20:10;3.58;;;1.33;;
26536;SDS011;14204;51.262;5.488;2022-08-01T11:30:41;1.25;;;0.90;;
26536;SDS011;14204;51.262;5.488;2022-08-01T11:33:07;1.10;;;0.93;;
26536;SDS011;14204;51.262;5.488;2022-08-01T11:35:34;1.38;;;1.27;;
26536;SDS011;14204;51.262;5.488;2022-08-01T11:38:23;1.90;;;1.00;;
26536;SDS011;14204;51.262;5.488;2022-08-01T11:43:55;1.15;;;1.15;;
26536;SDS011;14204;51.262;5.488;2022-08-01T11:47:06;2.05;;;1.20;;
26536;SDS011;14204;51.262;5.488;2022-08-01T11:52:16;4.80;;;1.15;;
26536;SDS011;14204;51.262;5.488;2022-08-01T11:54:56;1.98;;;1.48;;
26536;SDS011;14204;51.262;5.488;2022-08-01T11:57:30;2.85;;;1.70;;
26536;SDS011;14204;51.262;5.488;2022-08-01T12:00:00;3.03;;;1.55;;
26536;SDS011;14204;51.262;5.488;2022-08-01T12:02:36;2.28;;;1.52;;
26536;SDS011;14204;51.262;5.488;2022-08-01T12:07:33;2.55;;;1.65;;
26536;SDS011;14204;51.262;5.488;2022-08-01T12:12:29;2.55;;;1.40;;
26536;SDS011;14204;51.262;5.488;2022-08-01T12:14:59;1.45;;;1.35;;
26536;SDS011;14204;51.262;5.488;2022-08-01T12:17:39;4.20;;;1.48;;
26536;SDS011;14204;51.262;5.488;2022-08-01T12:20:07;1.98;;;1.50;;
26536;SDS011;14204;51.262;5.488;2022-08-01T12:22:35;2.78;;;1.58;;
26536;SDS011;14204;51.262;5.488;2022-08-01T12:25:07;1.30;;;1.02;;
26536;SDS011;14204;51.262;5.488;2022-08-01T12:27:36;2.88;;;1.63;;
26536;SDS011;14204;51.262;5.488;2022-08-01T12:30:06;2.55;;;1.70;;
26536;SDS011;14204;51.262;5.488;2022-08-01T12:32:34;3.53;;;1.63;;
26536;SDS011;14204;51.262;5.488;2022-08-01T12:35:03;2.72;;;1.73;;
26536;SDS011;14204;51.262;5.488;2022-08-01T12:37:40;3.75;;;1.40;;
26536;SDS011;14204;51.262;5.488;2022-08-01T12:42:41;2.15;;;1.02;;
26536;SDS011;14204;51.262;5.488;2022-08-01T12:45:08;2.83;;;1.67;;
26536;SDS011;14204;51.262;5.488;2022-08-01T12:47:38;1.90;;;1.33;;
26536;SDS011;14204;51.262;5.488;2022-08-01T12:50:08;1.45;;;1.15;;
26536;SDS011;14204;51.262;5.488;2022-08-01T12:52:37;2.13;;;1.42;;
26536;SDS011;14204;51.262;5.488;2022-08-01T12:55:04;4.28;;;1.00;;
26536;SDS011;14204;51.262;5.488;2022-08-01T12:57:35;1.75;;;1.00;;
26536;SDS011;14204;51.262;5.488;2022-08-01T13:00:10;1.50;;;1.20;;
26536;SDS011;14204;51.262;5.488;2022-08-01T13:02:42;2.58;;;1.13;;
26536;SDS011;14204;51.262;5.488;2022-08-01T13:05:11;1.15;;;0.93;;
26536;SDS011;14204;51.262;5.488;2022-08-01T13:07:48;0.98;;;0.90;;
26536;SDS011;14204;51.262;5.488;2022-08-01T13:10:15;2.03;;;0.90;;
26536;SDS011;14204;51.262;5.488;2022-08-01T13:12:54;2.35;;;1.15;;
26536;SDS011;14204;51.262;5.488;2022-08-01T13:15:29;1.35;;;1.15;;
26536;SDS011;14204;51.262;5.488;2022-08-01T13:17:57;2.08;;;1.50;;
26536;SDS011;14204;51.262;5.488;2022-08-01T13:22:54;2.85;;;1.70;;
26536;SDS011;14204;51.262;5.488;2022-08-01T13:25:20;6.38;;;1.50;;
26536;SDS011;14204;51.262;5.488;2022-08-01T13:27:46;2.55;;;1.75;;
26536;SDS011;14204;51.262;5.488;2022-08-01T13:30:16;2.58;;;1.83;;
26536;SDS011;14204;51.262;5.488;2022-08-01T13:33:04;2.30;;;1.60;;
26536;SDS011;14204;51.262;5.488;2022-08-01T13:35:29;2.60;;;1.55;;
26536;SDS011;14204;51.262;5.488;2022-08-01T13:37:55;2.00;;;1.38;;
26536;SDS011;14204;51.262;5.488;2022-08-01T13:40:25;2.70;;;1.45;;
26536;SDS011;14204;51.262;5.488;2022-08-01T13:42:52;5.63;;;1.60;;
26536;SDS011;14204;51.262;5.488;2022-08-01T13:45:20;9.13;;;2.40;;
26536;SDS011;14204;51.262;5.488;2022-08-01T13:47:46;21.35;;;3.65;;
26536;SDS011;14204;51.262;5.488;2022-08-01T13:50:11;16.60;;;3.03;;
26536;SDS011;14204;51.262;5.488;2022-08-01T13:52:37;33.20;;;5.10;;
26536;SDS011;14204;51.262;5.488;2022-08-01T13:55:03;7.15;;;1.90;;
26536;SDS011;14204;51.262;5.488;2022-08-01T13:57:29;9.40;;;1.95;;
26536;SDS011;14204;51.262;5.488;2022-08-01T13:59:54;3.17;;;1.58;;
26536;SDS011;14204;51.262;5.488;2022-08-01T14:02:20;1.95;;;1.50;;
26536;SDS011;14204;51.262;5.488;2022-08-01T14:04:46;2.50;;;1.50;;
26536;SDS011;14204;51.262;5.488;2022-08-01T14:07:12;4.20;;;1.65;;
26536;SDS011;14204;51.262;5.488;2022-08-01T14:09:38;2.85;;;1.35;;
26536;SDS011;14204;51.262;5.488;2022-08-01T14:12:03;3.17;;;1.50;;
26536;SDS011;14204;51.262;5.488;2022-08-01T14:14:29;2.92;;;1.40;;
26536;SDS011;14204;51.262;5.488;2022-08-01T14:16:55;3.05;;;1.38;;
26536;SDS011;14204;51.262;5.488;2022-08-01T14:19:21;4.03;;;1.77;;
26536;SDS011;14204;51.262;5.488;2022-08-01T14:21:47;2.70;;;1.67;;
26536;SDS011;14204;51.262;5.488;2022-08-01T14:24:12;2.38;;;1.48;;
26536;SDS011;14204;51.262;5.488;2022-08-01T14:26:38;2.22;;;1.45;;
26536;SDS011;14204;51.262;5.488;2022-08-01T14:29:03;5.07;;;1.50;;
26536;SDS011;14204;51.262;5.488;2022-08-01T14:31:29;3.58;;;1.80;;
26536;SDS011;14204;51.262;5.488;2022-08-01T14:33:55;3.05;;;1.45;;
26536;SDS011;14204;51.262;5.488;2022-08-01T14:36:21;4.22;;;1.50;;
26536;SDS011;14204;51.262;5.488;2022-08-01T14:38:46;3.97;;;1.92;;
26536;SDS011;14204;51.262;5.488;2022-08-01T14:41:13;4.13;;;1.70;;
26536;SDS011;14204;51.262;5.488;2022-08-01T14:43:39;1.92;;;1.20;;
26536;SDS011;14204;51.262;5.488;2022-08-01T14:46:04;2.50;;;1.30;;
26536;SDS011;14204;51.262;5.488;2022-08-01T14:48:30;2.70;;;1.42;;
26536;SDS011;14204;51.262;5.488;2022-08-01T14:50:56;3.45;;;1.70;;
26536;SDS011;14204;51.262;5.488;2022-08-01T14:53:23;2.97;;;1.60;;
26536;SDS011;14204;51.262;5.488;2022-08-01T14:55:49;1.75;;;1.50;;
26536;SDS011;14204;51.262;5.488;2022-08-01T14:58:15;2.42;;;1.50;;
26536;SDS011;14204;51.262;5.488;2022-08-01T15:00:40;3.58;;;1.45;;
26536;SDS011;14204;51.262;5.488;2022-08-01T15:03:06;3.75;;;1.90;;
26536;SDS011;14204;51.262;5.488;2022-08-01T15:05:32;6.43;;;1.50;;
26536;SDS011;14204;51.262;5.488;2022-08-01T15:07:57;35.08;;;3.10;;
26536;SDS011;14204;51.262;5.488;2022-08-01T15:10:23;2.92;;;1.80;;
26536;SDS011;14204;51.262;5.488;2022-08-01T15:12:49;5.85;;;2.25;;
26536;SDS011;14204;51.262;5.488;2022-08-01T15:15:14;2.85;;;2.03;;
26536;SDS011;14204;51.262;5.488;2022-08-01T15:17:40;4.53;;;1.75;;
26536;SDS011;14204;51.262;5.488;2022-08-01T15:20:06;3.83;;;1.98;;
26536;SDS011;14204;51.262;5.488;2022-08-01T15:22:32;3.15;;;1.63;;
26536;SDS011;14204;51.262;5.488;2022-08-01T15:24:59;5.93;;;2.17;;
26536;SDS011;14204;51.262;5.488;2022-08-01T15:27:26;2.42;;;1.73;;
26536;SDS011;14204;51.262;5.488;2022-08-01T15:29:53;8.40;;;2.17;;
26536;SDS011;14204;51.262;5.488;2022-08-01T15:32:20;3.70;;;2.00;;
26536;SDS011;14204;51.262;5.488;2022-08-01T15:34:46;3.17;;;2.05;;